Buford, Georgia
Current Conditions -  °F | °C
As of 8:45 PM on Friday 19 Dec 2014 (Local Time) from KLZU Reporting Station
Clear Clear  
Wind Chill: 46°   Ceiling: Unl
Heat Index: 46°   Visibility: 10mi
Dew Point: 30°   Wind: 0mph
Humidity: 53%   Direction: NA
Pressure: 30.13"   Gusts: NA
Location:  34.12°N, 84.01°W
Report Text: KLZU 200145Z 00000KT 10SM CLR 08/M01 A3013 RMK JW
Loading
Personal Weather Stations






























Interactive Weather Map New forecast layout! Learn more

10-Day Weather Forecast

Advertisements
Track Severe Weather on mobile